Cotes De Bretagne — FW3973 — position and weather

sailwx.info

Track history (hours):
 
Tides and Currents Weather Stations Pressure Air Temp Water Temp Dewpoint Dewpoint Depression Visibility Wind Speed Wind Dir Waves Ship Positions

Cotes De Bretagne

Last reported at 2015-May-03 16:33 UTC. Time now 2015-May-04 15:04 UTC.
Position N 47°58' W 004°06'.

Length 75 m; draft 4.2 m.

Type: Dredging. MMSI: 227003850.

Date/timePositionNaut miles runAvg speedWind from/ knotsBaromVisibWave heightAir tempDewpointWater temp
2015-May-03 16:33N 47°58' W 004°06'0 0.0
2015-May-02 08:33N 47°58' W 004°06'0 0.0
2015-May-01 22:33N 47°58' W 004°06'5 0.2
2015-Apr-30 12:33N 47°53' W 004°07'9 2.1
2015-Apr-30 08:33N 47°44' W 004°07'10 9.7
2015-Apr-30 07:33N 47°45' W 004°22'20 9.7
2015-Apr-30 05:33N 47°59' W 004°42'9 9.3
2015-Apr-30 04:33N 48°08' W 004°45'10 9.8
2015-Apr-30 03:33N 48°18' W 004°47'1110.9
2015-Apr-30 02:33N 48°28' W 004°50'8 8.4
2015-Apr-30 01:33N 48°37' W 004°47'  
2015-Apr-25 05:15N 48°29' W 004°50'812.0
2015-Apr-25 04:33N 48°20' W 004°48'1111.0
2015-Apr-25 03:33N 48°10' W 004°46'1111.2
2015-Apr-25 02:33N 47°59' W 004°41'41 9.8
2015-Apr-24 22:18N 47°39' W 003°47'810.3
2015-Apr-24 21:33N 47°40' W 003°36'10 9.7
2015-Apr-24 20:33N 47°43' W 003°22'3 2.7
2015-Apr-24 19:33N 47°45' W 003°19'0 0.0
2015-Apr-24 18:33N 47°45' W 003°19'0 0.5
2015-Apr-24 17:33N 47°45' W 003°20'1 1.2
2015-Apr-24 16:33N 47°44' W 003°21'0 0.0
2015-Apr-24 15:33N 47°44' W 003°21'0 0.0
2015-Apr-24 14:33N 47°44' W 003°21'0 0.0
2015-Apr-24 13:33N 47°44' W 003°21'0 0.0
2015-Apr-24 12:33N 47°44' W 003°21'0 0.0
2015-Apr-24 11:33N 47°44' W 003°21'0 0.0
2015-Apr-24 10:33N 47°44' W 003°21'4 4.2
2015-Apr-24 09:33N 47°40' W 003°22'9 9.3
2015-Apr-24 08:32N 47°32' W 003°15'11 9.0
2015-Apr-24 07:20N 47°23' W 003°05'55 9.4
2015-Apr-24 01:28N 46°42' W 002°11'9 9.4
2015-Apr-24 00:33N 46°36' W 002°02'9 9.4
2015-Apr-23 23:33N 46°29' W 001°53'8 8.3
2015-Apr-23 22:33N 46°22' W 001°45'0 0.3
2015-Apr-23 21:33N 46°22' W 001°45'0 0.4
2015-Apr-23 20:33N 46°22' W 001°44'6 6.1
2015-Apr-23 19:33N 46°26' W 001°51'1111.2
2015-Apr-23 18:33N 46°35' W 002°02'  
Track history (hours):
 
Tides and Currents Weather Stations Pressure Air Temp Water Temp Dewpoint Dewpoint Depression Visibility Wind Speed Wind Dir Waves Ship Positions

Cotes De Bretagne

Last reported at 2015-May-03 16:33 UTC. Time now 2015-May-04 15:04 UTC.
Position N 47°58' W 004°06'.

Length 75 m; draft 4.2 m.

Type: Dredging. MMSI: 227003850.

Date/timePositionNaut miles runAvg speedWind from/ knotsBaromVisibWave heightAir tempDewpointWater temp
2015-May-03 16:33N 47°58' W 004°06'0 0.0
2015-May-02 08:33N 47°58' W 004°06'0 0.0
2015-May-01 22:33N 47°58' W 004°06'5 0.2
2015-Apr-30 12:33N 47°53' W 004°07'9 2.1
2015-Apr-30 08:33N 47°44' W 004°07'10 9.7
2015-Apr-30 07:33N 47°45' W 004°22'20 9.7
2015-Apr-30 05:33N 47°59' W 004°42'9 9.3
2015-Apr-30 04:33N 48°08' W 004°45'10 9.8
2015-Apr-30 03:33N 48°18' W 004°47'1110.9
2015-Apr-30 02:33N 48°28' W 004°50'8 8.4
2015-Apr-30 01:33N 48°37' W 004°47'  
2015-Apr-25 05:15N 48°29' W 004°50'812.0
2015-Apr-25 04:33N 48°20' W 004°48'1111.0
2015-Apr-25 03:33N 48°10' W 004°46'1111.2
2015-Apr-25 02:33N 47°59' W 004°41'41 9.8
2015-Apr-24 22:18N 47°39' W 003°47'810.3
2015-Apr-24 21:33N 47°40' W 003°36'10 9.7
2015-Apr-24 20:33N 47°43' W 003°22'3 2.7
2015-Apr-24 19:33N 47°45' W 003°19'0 0.0
2015-Apr-24 18:33N 47°45' W 003°19'0 0.5
2015-Apr-24 17:33N 47°45' W 003°20'1 1.2
2015-Apr-24 16:33N 47°44' W 003°21'0 0.0
2015-Apr-24 15:33N 47°44' W 003°21'0 0.0
2015-Apr-24 14:33N 47°44' W 003°21'0 0.0
2015-Apr-24 13:33N 47°44' W 003°21'0 0.0
2015-Apr-24 12:33N 47°44' W 003°21'0 0.0
2015-Apr-24 11:33N 47°44' W 003°21'0 0.0
2015-Apr-24 10:33N 47°44' W 003°21'4 4.2
2015-Apr-24 09:33N 47°40' W 003°22'9 9.3
2015-Apr-24 08:32N 47°32' W 003°15'11 9.0
2015-Apr-24 07:20N 47°23' W 003°05'55 9.4
2015-Apr-24 01:28N 46°42' W 002°11'9 9.4
2015-Apr-24 00:33N 46°36' W 002°02'9 9.4
2015-Apr-23 23:33N 46°29' W 001°53'8 8.3
2015-Apr-23 22:33N 46°22' W 001°45'0 0.3
2015-Apr-23 21:33N 46°22' W 001°45'0 0.4
2015-Apr-23 20:33N 46°22' W 001°44'6 6.1
2015-Apr-23 19:33N 46°26' W 001°51'1111.2
2015-Apr-23 18:33N 46°35' W 002°02'  

Dump ship's entire track history